Terminal Aerodrome Forecast
Issued by NWS

Home | Current Version | Previous Version | Text Only | Print | Product List | Glossary On
Versions: 1 2 3 4 5 6 7 8 9 10 11 12 13 14 15 16 17 18 19 20 21 22 23 24 25 26 27 28 29 30 31 32 33 34 35 36 37 38 39 40 41 42 43 44 45 46
000
FTUS44 KHGX 310858 AAA
TAFIAH
TAF AMD
KIAH 310858Z 3109/0112 18003KT P6SM FEW026 SCT250
     FM311500 20006KT P6SM SCT035 SCT150
     FM312200 19008KT P6SM VCTS BKN050CB
      TEMPO 3122/0102 VRB10G25KT 4SM TSRA BKN035CB
     FM010200 32005KT P6SM VCTS SCT015 BKN050CB=

USA.gov is the U.S. government's official web portal to all federal, state and local government web resources and services.